sensor_id;sensor_type;location;lat;lon;timestamp;temperature;humidity
13074;DHT22;6603;47.066;15.396;2023-03-14T00:02:31;5.30;12.00
13074;DHT22;6603;47.066;15.396;2023-03-14T00:04:57;5.30;6.60
13074;DHT22;6603;47.066;15.396;2023-03-14T00:07:23;5.30;19.50
13074;DHT22;6603;47.066;15.396;2023-03-14T00:09:51;5.30;14.20
13074;DHT22;6603;47.066;15.396;2023-03-14T00:12:17;5.30;6.40
13074;DHT22;6603;47.066;15.396;2023-03-14T00:14:42;5.30;6.70
13074;DHT22;6603;47.066;15.396;2023-03-14T00:17:09;5.30;4.70
13074;DHT22;6603;47.066;15.396;2023-03-14T00:19:35;5.40;13.20
13074;DHT22;6603;47.066;15.396;2023-03-14T00:22:01;5.30;3.50
13074;DHT22;6603;47.066;15.396;2023-03-14T00:24:27;5.50;22.90
13074;DHT22;6603;47.066;15.396;2023-03-14T00:26:53;5.60;1.00
13074;DHT22;6603;47.066;15.396;2023-03-14T00:29:19;5.50;1.00
13074;DHT22;6603;47.066;15.396;2023-03-14T00:31:45;5.50;1.00
13074;DHT22;6603;47.066;15.396;2023-03-14T00:34:10;5.50;1.00
13074;DHT22;6603;47.066;15.396;2023-03-14T00:36:37;5.70;1.00
13074;DHT22;6603;47.066;15.396;2023-03-14T00:39:03;5.60;1.00
13074;DHT22;6603;47.066;15.396;2023-03-14T00:41:28;5.60;1.00
13074;DHT22;6603;47.066;15.396;2023-03-14T00:43:54;5.60;1.00
13074;DHT22;6603;47.066;15.396;2023-03-14T00:46:20;5.70;1.00
13074;DHT22;6603;47.066;15.396;2023-03-14T00:48:47;5.70;1.00
13074;DHT22;6603;47.066;15.396;2023-03-14T00:51:13;5.60;1.00
13074;DHT22;6603;47.066;15.396;2023-03-14T00:53:41;5.50;1.00
13074;DHT22;6603;47.066;15.396;2023-03-14T00:56:10;5.60;1.00
13074;DHT22;6603;47.066;15.396;2023-03-14T00:58:36;5.40;1.00
13074;DHT22;6603;47.066;15.396;2023-03-14T01:01:20;5.40;5.40
13074;DHT22;6603;47.066;15.396;2023-03-14T01:03:46;5.40;8.60
13074;DHT22;6603;47.066;15.396;2023-03-14T01:06:17;5.30;18.20
13074;DHT22;6603;47.066;15.396;2023-03-14T01:08:45;5.30;20.50
13074;DHT22;6603;47.066;15.396;2023-03-14T01:11:23;5.30;10.80
13074;DHT22;6603;47.066;15.396;2023-03-14T01:13:50;5.30;24.40
13074;DHT22;6603;47.066;15.396;2023-03-14T01:16:17;5.20;20.60
13074;DHT22;6603;47.066;15.396;2023-03-14T01:18:44;5.20;18.10
13074;DHT22;6603;47.066;15.396;2023-03-14T01:21:16;5.20;28.40
13074;DHT22;6603;47.066;15.396;2023-03-14T01:23:43;5.30;19.20
13074;DHT22;6603;47.066;15.396;2023-03-14T01:26:15;5.20;15.00
13074;DHT22;6603;47.066;15.396;2023-03-14T01:28:41;5.20;24.00
13074;DHT22;6603;47.066;15.396;2023-03-14T01:31:09;5.20;31.40
13074;DHT22;6603;47.066;15.396;2023-03-14T01:33:36;5.30;7.30
13074;DHT22;6603;47.066;15.396;2023-03-14T01:36:03;5.10;22.00
13074;DHT22;6603;47.066;15.396;2023-03-14T01:38:30;5.00;36.90
13074;DHT22;6603;47.066;15.396;2023-03-14T01:40:57;5.00;28.50
13074;DHT22;6603;47.066;15.396;2023-03-14T01:43:24;4.90;22.90
13074;DHT22;6603;47.066;15.396;2023-03-14T01:51:00;4.70;66.90
13074;DHT22;6603;47.066;15.396;2023-03-14T01:53:27;4.60;47.40
13074;DHT22;6603;47.066;15.396;2023-03-14T01:55:55;4.60;93.10
13074;DHT22;6603;47.066;15.396;2023-03-14T01:58:24;4.70;55.70
13074;DHT22;6603;47.066;15.396;2023-03-14T02:00:54;4.70;92.70
13074;DHT22;6603;47.066;15.396;2023-03-14T02:03:22;4.70;66.40
13074;DHT22;6603;47.066;15.396;2023-03-14T02:05:49;4.60;66.10
13074;DHT22;6603;47.066;15.396;2023-03-14T02:08:20;4.40;62.60
13074;DHT22;6603;47.066;15.396;2023-03-14T02:10:48;4.40;99.00
13074;DHT22;6603;47.066;15.396;2023-03-14T02:13:17;4.40;99.90
13074;DHT22;6603;47.066;15.396;2023-03-14T02:15:44;4.60;99.90
13074;DHT22;6603;47.066;15.396;2023-03-14T02:18:11;4.60;99.90
13074;DHT22;6603;47.066;15.396;2023-03-14T02:21:00;4.50;99.90
13074;DHT22;6603;47.066;15.396;2023-03-14T02:26:15;4.60;99.90
13074;DHT22;6603;47.066;15.396;2023-03-14T02:28:44;4.70;99.90
13074;DHT22;6603;47.066;15.396;2023-03-14T02:31:10;4.70;93.20
13074;DHT22;6603;47.066;15.396;2023-03-14T02:33:37;4.90;95.90
13074;DHT22;6603;47.066;15.396;2023-03-14T02:36:07;5.00;50.40
13074;DHT22;6603;47.066;15.396;2023-03-14T02:38:52;4.90;63.00
13074;DHT22;6603;47.066;15.396;2023-03-14T02:41:21;4.80;76.70
13074;DHT22;6603;47.066;15.396;2023-03-14T02:43:47;4.80;99.90
13074;DHT22;6603;47.066;15.396;2023-03-14T02:46:16;4.90;92.00
13074;DHT22;6603;47.066;15.396;2023-03-14T02:48:50;4.70;66.90
13074;DHT22;6603;47.066;15.396;2023-03-14T02:51:17;4.70;90.10
13074;DHT22;6603;47.066;15.396;2023-03-14T02:53:43;4.60;91.30
13074;DHT22;6603;47.066;15.396;2023-03-14T02:56:10;4.60;99.90
13074;DHT22;6603;47.066;15.396;2023-03-14T02:58:37;4.60;99.90
13074;DHT22;6603;47.066;15.396;2023-03-14T03:01:03;4.60;99.90
13074;DHT22;6603;47.066;15.396;2023-03-14T03:03:30;4.60;99.80
13074;DHT22;6603;47.066;15.396;2023-03-14T03:05:56;4.60;99.90
13074;DHT22;6603;47.066;15.396;2023-03-14T03:08:24;4.60;99.90
13074;DHT22;6603;47.066;15.396;2023-03-14T03:10:52;4.70;99.90
13074;DHT22;6603;47.066;15.396;2023-03-14T03:13:18;4.70;99.90
13074;DHT22;6603;47.066;15.396;2023-03-14T03:15:44;4.70;99.50
13074;DHT22;6603;47.066;15.396;2023-03-14T03:18:10;4.60;99.90
13074;DHT22;6603;47.066;15.396;2023-03-14T03:20:37;4.60;99.90
13074;DHT22;6603;47.066;15.396;2023-03-14T03:23:03;4.60;99.90
13074;DHT22;6603;47.066;15.396;2023-03-14T03:25:30;4.60;99.90
13074;DHT22;6603;47.066;15.396;2023-03-14T03:27:56;4.60;99.90
13074;DHT22;6603;47.066;15.396;2023-03-14T03:30:22;4.60;99.90
13074;DHT22;6603;47.066;15.396;2023-03-14T03:32:48;4.50;99.90
13074;DHT22;6603;47.066;15.396;2023-03-14T03:35:14;4.60;99.90
13074;DHT22;6603;47.066;15.396;2023-03-14T03:37:40;4.60;99.90
13074;DHT22;6603;47.066;15.396;2023-03-14T03:40:06;4.60;99.90
13074;DHT22;6603;47.066;15.396;2023-03-14T03:42:34;4.50;99.90
13074;DHT22;6603;47.066;15.396;2023-03-14T03:45:01;4.50;99.90
13074;DHT22;6603;47.066;15.396;2023-03-14T03:47:27;4.50;99.90
13074;DHT22;6603;47.066;15.396;2023-03-14T03:49:53;4.50;99.90
13074;DHT22;6603;47.066;15.396;2023-03-14T03:52:19;4.50;99.90
13074;DHT22;6603;47.066;15.396;2023-03-14T03:54:46;4.40;99.90
13074;DHT22;6603;47.066;15.396;2023-03-14T03:57:12;4.40;99.90
13074;DHT22;6603;47.066;15.396;2023-03-14T03:59:38;4.40;99.90
13074;DHT22;6603;47.066;15.396;2023-03-14T04:02:05;4.40;99.90
13074;DHT22;6603;47.066;15.396;2023-03-14T04:04:31;4.40;99.90
13074;DHT22;6603;47.066;15.396;2023-03-14T04:06:57;4.40;99.90
13074;DHT22;6603;47.066;15.396;2023-03-14T04:09:23;4.50;99.90
13074;DHT22;6603;47.066;15.396;2023-03-14T04:11:49;4.40;99.90
13074;DHT22;6603;47.066;15.396;2023-03-14T04:14:15;4.50;99.90
13074;DHT22;6603;47.066;15.396;2023-03-14T04:16:41;4.50;99.90
13074;DHT22;6603;47.066;15.396;2023-03-14T04:19:07;4.60;99.90
13074;DHT22;6603;47.066;15.396;2023-03-14T04:21:33;4.60;99.90
13074;DHT22;6603;47.066;15.396;2023-03-14T04:23:59;4.70;99.90
13074;DHT22;6603;47.066;15.396;2023-03-14T04:26:25;4.80;99.90
13074;DHT22;6603;47.066;15.396;2023-03-14T04:28:51;4.90;99.90
13074;DHT22;6603;47.066;15.396;2023-03-14T04:31:21;4.90;99.90
13074;DHT22;6603;47.066;15.396;2023-03-14T04:33:47;5.00;99.90
13074;DHT22;6603;47.066;15.396;2023-03-14T04:36:13;5.00;99.90
13074;DHT22;6603;47.066;15.396;2023-03-14T04:38:39;5.10;99.90
13074;DHT22;6603;47.066;15.396;2023-03-14T04:41:06;5.20;99.90
13074;DHT22;6603;47.066;15.396;2023-03-14T04:43:32;5.30;99.90
13074;DHT22;6603;47.066;15.396;2023-03-14T04:45:59;5.30;99.90
13074;DHT22;6603;47.066;15.396;2023-03-14T04:48:26;5.40;99.90
13074;DHT22;6603;47.066;15.396;2023-03-14T04:50:53;5.40;99.90
13074;DHT22;6603;47.066;15.396;2023-03-14T04:53:19;5.40;99.90
13074;DHT22;6603;47.066;15.396;2023-03-14T04:55:53;5.50;98.30
13074;DHT22;6603;47.066;15.396;2023-03-14T04:58:21;5.50;99.90
13074;DHT22;6603;47.066;15.396;2023-03-14T05:00:47;5.60;99.90
13074;DHT22;6603;47.066;15.396;2023-03-14T05:03:18;5.60;99.90
13074;DHT22;6603;47.066;15.396;2023-03-14T05:05:45;5.70;99.90
13074;DHT22;6603;47.066;15.396;2023-03-14T05:08:11;5.70;99.90
13074;DHT22;6603;47.066;15.396;2023-03-14T05:10:38;5.70;99.90
13074;DHT22;6603;47.066;15.396;2023-03-14T05:13:04;5.70;99.90
13074;DHT22;6603;47.066;15.396;2023-03-14T05:15:30;5.80;99.90
13074;DHT22;6603;47.066;15.396;2023-03-14T05:17:55;6.00;92.20
13074;DHT22;6603;47.066;15.396;2023-03-14T05:20:21;6.10;95.10
13074;DHT22;6603;47.066;15.396;2023-03-14T05:22:47;6.20;80.90
13074;DHT22;6603;47.066;15.396;2023-03-14T05:25:13;6.20;93.80
13074;DHT22;6603;47.066;15.396;2023-03-14T05:27:39;6.20;86.60
13074;DHT22;6603;47.066;15.396;2023-03-14T05:30:06;6.30;97.80
13074;DHT22;6603;47.066;15.396;2023-03-14T05:32:32;6.60;83.60
13074;DHT22;6603;47.066;15.396;2023-03-14T05:34:58;6.70;64.90
13074;DHT22;6603;47.066;15.396;2023-03-14T05:37:26;6.70;45.30
13074;DHT22;6603;47.066;15.396;2023-03-14T05:39:52;6.70;58.50
13074;DHT22;6603;47.066;15.396;2023-03-14T05:42:18;6.80;61.70
13074;DHT22;6603;47.066;15.396;2023-03-14T05:44:44;6.80;45.20
13074;DHT22;6603;47.066;15.396;2023-03-14T05:47:10;6.80;42.90
13074;DHT22;6603;47.066;15.396;2023-03-14T05:49:36;6.90;77.90
13074;DHT22;6603;47.066;15.396;2023-03-14T05:52:03;6.90;67.60
13074;DHT22;6603;47.066;15.396;2023-03-14T05:54:29;6.90;59.30
13074;DHT22;6603;47.066;15.396;2023-03-14T05:56:54;7.00;63.90
13074;DHT22;6603;47.066;15.396;2023-03-14T05:59:20;7.00;50.70
13074;DHT22;6603;47.066;15.396;2023-03-14T06:01:46;7.00;53.80
13074;DHT22;6603;47.066;15.396;2023-03-14T06:04:12;7.00;43.50
13074;DHT22;6603;47.066;15.396;2023-03-14T06:06:39;7.00;51.40
13074;DHT22;6603;47.066;15.396;2023-03-14T06:09:05;7.10;44.20
13074;DHT22;6603;47.066;15.396;2023-03-14T06:11:31;7.20;40.80
13074;DHT22;6603;47.066;15.396;2023-03-14T06:13:57;7.20;38.50
13074;DHT22;6603;47.066;15.396;2023-03-14T06:16:22;7.20;19.50
13074;DHT22;6603;47.066;15.396;2023-03-14T06:18:48;7.30;14.90
13074;DHT22;6603;47.066;15.396;2023-03-14T06:21:15;7.30;1.00
13074;DHT22;6603;47.066;15.396;2023-03-14T06:23:40;7.40;1.00
13074;DHT22;6603;47.066;15.396;2023-03-14T06:26:06;7.40;1.00
13074;DHT22;6603;47.066;15.396;2023-03-14T06:28:32;7.40;1.00
13074;DHT22;6603;47.066;15.396;2023-03-14T06:30:59;7.40;1.00
13074;DHT22;6603;47.066;15.396;2023-03-14T06:33:25;7.50;1.00
13074;DHT22;6603;47.066;15.396;2023-03-14T06:35:51;7.50;1.00
13074;DHT22;6603;47.066;15.396;2023-03-14T06:38:16;7.60;1.00
13074;DHT22;6603;47.066;15.396;2023-03-14T06:40:42;7.80;1.00
13074;DHT22;6603;47.066;15.396;2023-03-14T06:43:08;7.90;1.00
13074;DHT22;6603;47.066;15.396;2023-03-14T06:45:34;8.10;1.00
13074;DHT22;6603;47.066;15.396;2023-03-14T06:47:59;8.30;1.00
13074;DHT22;6603;47.066;15.396;2023-03-14T06:50:25;8.60;1.00
13074;DHT22;6603;47.066;15.396;2023-03-14T06:52:51;8.80;1.00
13074;DHT22;6603;47.066;15.396;2023-03-14T06:55:17;8.90;1.00
13074;DHT22;6603;47.066;15.396;2023-03-14T06:57:43;8.90;1.00
13074;DHT22;6603;47.066;15.396;2023-03-14T07:00:11;9.10;1.00
13074;DHT22;6603;47.066;15.396;2023-03-14T07:02:38;9.30;1.00
13074;DHT22;6603;47.066;15.396;2023-03-14T07:05:04;9.60;1.00
13074;DHT22;6603;47.066;15.396;2023-03-14T07:07:30;9.90;1.00
13074;DHT22;6603;47.066;15.396;2023-03-14T07:09:56;10.10;1.00
13074;DHT22;6603;47.066;15.396;2023-03-14T07:12:22;10.40;1.00
13074;DHT22;6603;47.066;15.396;2023-03-14T07:14:47;10.60;1.00
13074;DHT22;6603;47.066;15.396;2023-03-14T07:17:13;10.90;1.00
13074;DHT22;6603;47.066;15.396;2023-03-14T07:19:39;11.20;1.00
13074;DHT22;6603;47.066;15.396;2023-03-14T07:22:05;11.40;1.00
13074;DHT22;6603;47.066;15.396;2023-03-14T07:24:31;11.60;1.00
13074;DHT22;6603;47.066;15.396;2023-03-14T07:26:56;11.80;1.00
13074;DHT22;6603;47.066;15.396;2023-03-14T07:29:22;11.80;1.00
13074;DHT22;6603;47.066;15.396;2023-03-14T07:31:49;11.80;1.00
13074;DHT22;6603;47.066;15.396;2023-03-14T07:34:14;11.70;1.00
13074;DHT22;6603;47.066;15.396;2023-03-14T07:36:40;11.80;1.00
13074;DHT22;6603;47.066;15.396;2023-03-14T07:39:06;11.90;1.00
13074;DHT22;6603;47.066;15.396;2023-03-14T07:41:32;12.00;1.00
13074;DHT22;6603;47.066;15.396;2023-03-14T07:43:58;12.10;1.00
13074;DHT22;6603;47.066;15.396;2023-03-14T07:46:24;12.20;1.00
13074;DHT22;6603;47.066;15.396;2023-03-14T07:48:50;12.30;1.00
13074;DHT22;6603;47.066;15.396;2023-03-14T07:51:16;12.50;1.00
13074;DHT22;6603;47.066;15.396;2023-03-14T07:53:42;12.70;1.00
13074;DHT22;6603;47.066;15.396;2023-03-14T07:56:09;13.00;1.00
13074;DHT22;6603;47.066;15.396;2023-03-14T07:58:34;13.00;99.90
13074;DHT22;6603;47.066;15.396;2023-03-14T08:01:00;13.10;99.90
13074;DHT22;6603;47.066;15.396;2023-03-14T08:03:26;13.10;1.00
13074;DHT22;6603;47.066;15.396;2023-03-14T08:05:52;13.10;1.00
13074;DHT22;6603;47.066;15.396;2023-03-14T08:08:18;13.40;1.00
13074;DHT22;6603;47.066;15.396;2023-03-14T08:10:44;13.60;99.90
13074;DHT22;6603;47.066;15.396;2023-03-14T08:13:12;13.50;99.90
13074;DHT22;6603;47.066;15.396;2023-03-14T08:15:38;13.70;1.00
13074;DHT22;6603;47.066;15.396;2023-03-14T08:18:05;13.80;99.90
13074;DHT22;6603;47.066;15.396;2023-03-14T08:20:31;14.00;23.20
13074;DHT22;6603;47.066;15.396;2023-03-14T08:22:59;14.20;1.00
13074;DHT22;6603;47.066;15.396;2023-03-14T08:25:27;14.30;99.90
13074;DHT22;6603;47.066;15.396;2023-03-14T08:27:54;14.30;1.00
13074;DHT22;6603;47.066;15.396;2023-03-14T08:30:21;14.40;1.00
13074;DHT22;6603;47.066;15.396;2023-03-14T08:32:47;14.40;99.90
13074;DHT22;6603;47.066;15.396;2023-03-14T08:35:14;14.40;1.00
13074;DHT22;6603;47.066;15.396;2023-03-14T08:37:40;14.30;99.90
13074;DHT22;6603;47.066;15.396;2023-03-14T08:40:07;14.30;99.90
13074;DHT22;6603;47.066;15.396;2023-03-14T08:42:37;14.30;99.90
13074;DHT22;6603;47.066;15.396;2023-03-14T08:45:04;14.40;99.90
13074;DHT22;6603;47.066;15.396;2023-03-14T08:47:30;14.50;1.00
13074;DHT22;6603;47.066;15.396;2023-03-14T08:49:56;14.60;99.90
13074;DHT22;6603;47.066;15.396;2023-03-14T08:52:22;14.60;99.90
13074;DHT22;6603;47.066;15.396;2023-03-14T08:54:48;14.70;1.00
13074;DHT22;6603;47.066;15.396;2023-03-14T08:57:14;14.80;99.90
13074;DHT22;6603;47.066;15.396;2023-03-14T08:59:40;14.70;99.90
13074;DHT22;6603;47.066;15.396;2023-03-14T09:02:11;14.90;99.90
13074;DHT22;6603;47.066;15.396;2023-03-14T09:04:37;15.00;1.00
13074;DHT22;6603;47.066;15.396;2023-03-14T09:07:03;15.10;1.00
13074;DHT22;6603;47.066;15.396;2023-03-14T09:09:30;15.20;1.00
13074;DHT22;6603;47.066;15.396;2023-03-14T09:11:56;15.10;99.90
13074;DHT22;6603;47.066;15.396;2023-03-14T09:14:22;15.10;1.00
13074;DHT22;6603;47.066;15.396;2023-03-14T09:16:49;15.40;99.90
13074;DHT22;6603;47.066;15.396;2023-03-14T09:19:16;15.50;99.90
13074;DHT22;6603;47.066;15.396;2023-03-14T09:21:42;15.60;99.90
13074;DHT22;6603;47.066;15.396;2023-03-14T09:24:08;15.70;87.60
13074;DHT22;6603;47.066;15.396;2023-03-14T09:26:34;15.60;1.00
13074;DHT22;6603;47.066;15.396;2023-03-14T09:29:00;15.40;1.00
13074;DHT22;6603;47.066;15.396;2023-03-14T09:31:26;15.40;1.00
13074;DHT22;6603;47.066;15.396;2023-03-14T09:33:54;15.30;1.00
13074;DHT22;6603;47.066;15.396;2023-03-14T09:36:20;15.20;99.90
13074;DHT22;6603;47.066;15.396;2023-03-14T09:38:46;15.00;1.00
13074;DHT22;6603;47.066;15.396;2023-03-14T09:41:23;14.80;1.00
13074;DHT22;6603;47.066;15.396;2023-03-14T09:46:39;14.70;99.90
13074;DHT22;6603;47.066;15.396;2023-03-14T09:49:12;14.70;99.90
13074;DHT22;6603;47.066;15.396;2023-03-14T09:51:41;14.60;1.00
13074;DHT22;6603;47.066;15.396;2023-03-14T09:56:57;14.50;1.00
13074;DHT22;6603;47.066;15.396;2023-03-14T09:59:23;14.50;1.00
13074;DHT22;6603;47.066;15.396;2023-03-14T10:01:50;14.40;1.00
13074;DHT22;6603;47.066;15.396;2023-03-14T10:04:21;14.40;1.00
13074;DHT22;6603;47.066;15.396;2023-03-14T10:06:51;14.40;1.00
13074;DHT22;6603;47.066;15.396;2023-03-14T10:09:21;14.50;99.90
13074;DHT22;6603;47.066;15.396;2023-03-14T10:11:57;14.70;52.30
13074;DHT22;6603;47.066;15.396;2023-03-14T10:14:31;14.90;1.00
13074;DHT22;6603;47.066;15.396;2023-03-14T10:17:05;15.10;99.90
13074;DHT22;6603;47.066;15.396;2023-03-14T10:19:33;15.50;1.00
13074;DHT22;6603;47.066;15.396;2023-03-14T10:22:03;15.80;99.90
13074;DHT22;6603;47.066;15.396;2023-03-14T10:24:34;16.10;23.70
13074;DHT22;6603;47.066;15.396;2023-03-14T10:29:32;17.10;1.00
13074;DHT22;6603;47.066;15.396;2023-03-14T10:32:04;17.30;99.90
13074;DHT22;6603;47.066;15.396;2023-03-14T10:34:33;17.10;99.90
13074;DHT22;6603;47.066;15.396;2023-03-14T10:37:21;16.90;99.90
13074;DHT22;6603;47.066;15.396;2023-03-14T10:39:53;17.00;99.90
13074;DHT22;6603;47.066;15.396;2023-03-14T10:42:30;16.90;99.90
13074;DHT22;6603;47.066;15.396;2023-03-14T10:45:00;17.20;99.90
13074;DHT22;6603;47.066;15.396;2023-03-14T10:47:27;17.30;99.90
13074;DHT22;6603;47.066;15.396;2023-03-14T10:49:57;17.20;99.90
13074;DHT22;6603;47.066;15.396;2023-03-14T10:52:47;16.90;3.50
13074;DHT22;6603;47.066;15.396;2023-03-14T10:55:14;16.60;1.00
13074;DHT22;6603;47.066;15.396;2023-03-14T10:57:41;16.40;1.00
13074;DHT22;6603;47.066;15.396;2023-03-14T11:00:19;16.40;1.00
13074;DHT22;6603;47.066;15.396;2023-03-14T11:03:12;16.10;1.00
13074;DHT22;6603;47.066;15.396;2023-03-14T11:06:03;16.10;1.00
13074;DHT22;6603;47.066;15.396;2023-03-14T11:08:50;16.00;1.00
13074;DHT22;6603;47.066;15.396;2023-03-14T11:11:24;15.90;1.00
13074;DHT22;6603;47.066;15.396;2023-03-14T11:14:02;16.30;1.00
13074;DHT22;6603;47.066;15.396;2023-03-14T11:22:38;17.10;1.00
13074;DHT22;6603;47.066;15.396;2023-03-14T11:30:53;16.70;1.00
13074;DHT22;6603;47.066;15.396;2023-03-14T11:33:36;16.50;1.00
13074;DHT22;6603;47.066;15.396;2023-03-14T11:36:11;16.50;1.00
13074;DHT22;6603;47.066;15.396;2023-03-14T11:38:41;17.00;1.00
13074;DHT22;6603;47.066;15.396;2023-03-14T11:41:59;17.00;1.00
13074;DHT22;6603;47.066;15.396;2023-03-14T11:44:26;17.20;1.00
13074;DHT22;6603;47.066;15.396;2023-03-14T11:47:02;17.00;1.00
13074;DHT22;6603;47.066;15.396;2023-03-14T11:49:32;16.80;1.00
13074;DHT22;6603;47.066;15.396;2023-03-14T11:52:28;16.60;1.00
13074;DHT22;6603;47.066;15.396;2023-03-14T11:55:07;16.70;1.00
13074;DHT22;6603;47.066;15.396;2023-03-14T11:57:36;17.00;1.00
13074;DHT22;6603;47.066;15.396;2023-03-14T12:00:22;16.50;1.00
13074;DHT22;6603;47.066;15.396;2023-03-14T12:14:26;17.10;1.00
13074;DHT22;6603;47.066;15.396;2023-03-14T12:16:58;17.10;1.00
13074;DHT22;6603;47.066;15.396;2023-03-14T12:19:28;17.00;1.00
13074;DHT22;6603;47.066;15.396;2023-03-14T12:24:34;17.10;1.00
13074;DHT22;6603;47.066;15.396;2023-03-14T12:27:03;17.00;1.00
13074;DHT22;6603;47.066;15.396;2023-03-14T12:29:29;16.70;1.00
13074;DHT22;6603;47.066;15.396;2023-03-14T12:34:42;16.30;1.00
13074;DHT22;6603;47.066;15.396;2023-03-14T13:13:22;15.40;1.00
13074;DHT22;6603;47.066;15.396;2023-03-14T13:15:54;15.80;1.00
13074;DHT22;6603;47.066;15.396;2023-03-14T13:18:42;16.00;1.00
13074;DHT22;6603;47.066;15.396;2023-03-14T13:21:21;16.00;1.00
13074;DHT22;6603;47.066;15.396;2023-03-14T13:26:21;15.70;1.00
13074;DHT22;6603;47.066;15.396;2023-03-14T13:28:49;15.70;1.00
13074;DHT22;6603;47.066;15.396;2023-03-14T13:31:25;15.50;1.00
13074;DHT22;6603;47.066;15.396;2023-03-14T13:34:04;15.60;1.00
13074;DHT22;6603;47.066;15.396;2023-03-14T13:36:35;15.60;1.00
13074;DHT22;6603;47.066;15.396;2023-03-14T13:39:02;15.60;1.00
13074;DHT22;6603;47.066;15.396;2023-03-14T13:41:30;15.60;1.00
13074;DHT22;6603;47.066;15.396;2023-03-14T13:44:05;15.60;1.00
13074;DHT22;6603;47.066;15.396;2023-03-14T13:46:34;15.50;1.00
13074;DHT22;6603;47.066;15.396;2023-03-14T13:49:16;15.30;1.00
13074;DHT22;6603;47.066;15.396;2023-03-14T13:51:44;15.20;1.00
13074;DHT22;6603;47.066;15.396;2023-03-14T13:54:15;15.20;1.00
13074;DHT22;6603;47.066;15.396;2023-03-14T13:56:41;15.20;1.00
13074;DHT22;6603;47.066;15.396;2023-03-14T13:59:30;15.10;1.00
13074;DHT22;6603;47.066;15.396;2023-03-14T14:01:59;15.10;1.00
13074;DHT22;6603;47.066;15.396;2023-03-14T14:04:26;15.00;1.00
13074;DHT22;6603;47.066;15.396;2023-03-14T14:06:58;15.00;1.00
13074;DHT22;6603;47.066;15.396;2023-03-14T14:09:30;14.90;1.00
13074;DHT22;6603;47.066;15.396;2023-03-14T14:12:08;14.90;1.00
13074;DHT22;6603;47.066;15.396;2023-03-14T14:14:45;14.80;1.00
13074;DHT22;6603;47.066;15.396;2023-03-14T14:17:19;14.80;1.00
13074;DHT22;6603;47.066;15.396;2023-03-14T14:19:47;14.70;1.00
13074;DHT22;6603;47.066;15.396;2023-03-14T14:22:13;14.70;1.00
13074;DHT22;6603;47.066;15.396;2023-03-14T14:24:39;14.60;1.00
13074;DHT22;6603;47.066;15.396;2023-03-14T14:27:18;14.50;1.00
13074;DHT22;6603;47.066;15.396;2023-03-14T14:30:02;14.50;1.00
13074;DHT22;6603;47.066;15.396;2023-03-14T14:32:40;14.50;28.70
13074;DHT22;6603;47.066;15.396;2023-03-14T14:35:08;14.50;41.60
13074;DHT22;6603;47.066;15.396;2023-03-14T14:37:43;14.50;52.10
13074;DHT22;6603;47.066;15.396;2023-03-14T14:40:26;14.50;79.20
13074;DHT22;6603;47.066;15.396;2023-03-14T14:42:53;14.50;48.50
13074;DHT22;6603;47.066;15.396;2023-03-14T14:45:22;14.50;73.30
13074;DHT22;6603;47.066;15.396;2023-03-14T14:47:51;14.50;85.90
13074;DHT22;6603;47.066;15.396;2023-03-14T14:50:33;14.40;99.10
13074;DHT22;6603;47.066;15.396;2023-03-14T14:55:55;14.50;92.70
13074;DHT22;6603;47.066;15.396;2023-03-14T14:58:36;14.50;99.90
13074;DHT22;6603;47.066;15.396;2023-03-14T15:01:13;14.60;77.90
13074;DHT22;6603;47.066;15.396;2023-03-14T15:03:42;14.70;94.50
13074;DHT22;6603;47.066;15.396;2023-03-14T15:06:11;14.80;10.00
13074;DHT22;6603;47.066;15.396;2023-03-14T15:08:38;14.90;42.10
13074;DHT22;6603;47.066;15.396;2023-03-14T15:11:04;14.90;8.90
13074;DHT22;6603;47.066;15.396;2023-03-14T15:13:30;14.90;27.30
13074;DHT22;6603;47.066;15.396;2023-03-14T15:15:57;14.90;6.60
13074;DHT22;6603;47.066;15.396;2023-03-14T15:18:25;14.80;13.60
13074;DHT22;6603;47.066;15.396;2023-03-14T15:20:51;14.70;5.20
13074;DHT22;6603;47.066;15.396;2023-03-14T15:23:20;14.60;89.50
13074;DHT22;6603;47.066;15.396;2023-03-14T15:25:47;14.50;1.00
13074;DHT22;6603;47.066;15.396;2023-03-14T15:28:15;14.40;26.90
13074;DHT22;6603;47.066;15.396;2023-03-14T15:30:42;14.30;76.60
13074;DHT22;6603;47.066;15.396;2023-03-14T15:33:08;14.20;40.80
13074;DHT22;6603;47.066;15.396;2023-03-14T15:35:36;14.20;94.60
13074;DHT22;6603;47.066;15.396;2023-03-14T15:38:03;14.00;99.90
13074;DHT22;6603;47.066;15.396;2023-03-14T15:40:29;14.00;99.90
13074;DHT22;6603;47.066;15.396;2023-03-14T15:42:55;13.90;99.90
13074;DHT22;6603;47.066;15.396;2023-03-14T15:45:21;13.90;99.90
13074;DHT22;6603;47.066;15.396;2023-03-14T15:47:47;13.90;99.90
13074;DHT22;6603;47.066;15.396;2023-03-14T15:50:13;13.90;47.80
13074;DHT22;6603;47.066;15.396;2023-03-14T15:52:39;13.90;2.20
13074;DHT22;6603;47.066;15.396;2023-03-14T15:55:05;13.90;15.00
13074;DHT22;6603;47.066;15.396;2023-03-14T15:57:31;13.90;5.70
13074;DHT22;6603;47.066;15.396;2023-03-14T15:59:57;14.00;1.00
13074;DHT22;6603;47.066;15.396;2023-03-14T16:02:23;14.00;1.00
13074;DHT22;6603;47.066;15.396;2023-03-14T16:04:49;14.10;1.00
13074;DHT22;6603;47.066;15.396;2023-03-14T16:07:15;14.00;1.00
13074;DHT22;6603;47.066;15.396;2023-03-14T16:09:41;13.90;1.00
13074;DHT22;6603;47.066;15.396;2023-03-14T16:12:07;13.90;1.00
13074;DHT22;6603;47.066;15.396;2023-03-14T16:14:34;13.90;1.00
13074;DHT22;6603;47.066;15.396;2023-03-14T16:17:00;13.80;1.00
13074;DHT22;6603;47.066;15.396;2023-03-14T16:19:26;13.80;1.00
13074;DHT22;6603;47.066;15.396;2023-03-14T16:21:56;13.70;1.00
13074;DHT22;6603;47.066;15.396;2023-03-14T16:24:22;13.70;1.00
13074;DHT22;6603;47.066;15.396;2023-03-14T16:26:48;13.70;55.90
13074;DHT22;6603;47.066;15.396;2023-03-14T16:29:14;13.60;99.90
13074;DHT22;6603;47.066;15.396;2023-03-14T16:31:41;13.40;99.90
13074;DHT22;6603;47.066;15.396;2023-03-14T16:34:10;13.30;1.00
13074;DHT22;6603;47.066;15.396;2023-03-14T16:36:37;13.10;1.00
13074;DHT22;6603;47.066;15.396;2023-03-14T16:39:03;13.00;1.00
13074;DHT22;6603;47.066;15.396;2023-03-14T16:41:29;13.00;1.00
13074;DHT22;6603;47.066;15.396;2023-03-14T16:43:59;12.90;1.00
13074;DHT22;6603;47.066;15.396;2023-03-14T16:46:27;12.90;1.00
13074;DHT22;6603;47.066;15.396;2023-03-14T16:48:55;12.80;1.00
13074;DHT22;6603;47.066;15.396;2023-03-14T16:51:22;12.80;50.10
13074;DHT22;6603;47.066;15.396;2023-03-14T16:53:48;12.70;58.20
13074;DHT22;6603;47.066;15.396;2023-03-14T16:56:15;12.60;99.90
13074;DHT22;6603;47.066;15.396;2023-03-14T16:58:41;12.50;99.90
13074;DHT22;6603;47.066;15.396;2023-03-14T17:01:11;12.40;99.90
13074;DHT22;6603;47.066;15.396;2023-03-14T17:03:40;12.30;99.90
13074;DHT22;6603;47.066;15.396;2023-03-14T17:06:07;12.30;99.90
13074;DHT22;6603;47.066;15.396;2023-03-14T17:08:33;12.20;99.90
13074;DHT22;6603;47.066;15.396;2023-03-14T17:10:59;12.10;99.90
13074;DHT22;6603;47.066;15.396;2023-03-14T17:13:25;12.00;99.90
13074;DHT22;6603;47.066;15.396;2023-03-14T17:15:57;11.90;99.90
13074;DHT22;6603;47.066;15.396;2023-03-14T17:18:24;11.90;99.90
13074;DHT22;6603;47.066;15.396;2023-03-14T17:20:55;11.90;99.90